createdAt,value
2018-05-10T00:00:03.493Z,8.57
2018-05-10T00:02:31.613Z,4.20
2018-05-10T00:04:59.778Z,7.93
2018-05-10T00:07:27.933Z,14.10
2018-05-10T00:09:56.078Z,5.47
2018-05-10T00:12:24.214Z,7.37
2018-05-10T00:14:53.122Z,8.20
2018-05-10T00:17:21.246Z,8.93
2018-05-10T00:19:49.389Z,12.33
2018-05-10T00:22:17.509Z,5.83
2018-05-10T00:24:45.657Z,4.27
2018-05-10T00:27:13.824Z,8.73
2018-05-10T00:29:41.985Z,11.57
2018-05-10T00:32:10.109Z,8.60
2018-05-10T00:34:39.022Z,6.70
2018-05-10T00:37:07.906Z,5.70
2018-05-10T00:39:36.806Z,6.77
2018-05-10T00:42:04.933Z,4.80
2018-05-10T00:44:33.150Z,5.13
2018-05-10T00:47:01.925Z,9.37
2018-05-10T00:49:30.848Z,15.03
2018-05-10T00:51:58.978Z,8.53
2018-05-10T00:54:45.661Z,6.73
2018-05-10T00:57:13.814Z,5.30
2018-05-10T00:59:41.974Z,11.93
2018-05-10T01:02:10.145Z,10.73
2018-05-10T01:04:38.293Z,6.60
2018-05-10T01:07:06.433Z,6.73
2018-05-10T01:09:34.569Z,5.10
2018-05-10T01:12:02.714Z,4.73
2018-05-10T01:14:30.834Z,8.30
2018-05-10T01:16:58.986Z,5.27
2018-05-10T01:19:27.115Z,14.80
2018-05-10T01:21:55.272Z,6.40
2018-05-10T01:24:23.410Z,4.30
2018-05-10T01:26:51.580Z,7.07
2018-05-10T01:29:19.729Z,11.30
2018-05-10T01:31:47.872Z,12.23
2018-05-10T01:34:16.043Z,7.07
2018-05-10T01:36:44.957Z,6.53
2018-05-10T01:39:13.234Z,5.67
2018-05-10T01:41:41.376Z,8.40
2018-05-10T01:44:10.303Z,6.83
2018-05-10T01:46:38.444Z,8.00
2018-05-10T01:49:06.598Z,8.33
2018-05-10T01:51:34.761Z,5.00
2018-05-10T01:54:02.890Z,6.80
2018-05-10T01:56:31.036Z,5.67
2018-05-10T01:58:59.961Z,4.87
2018-05-10T02:01:28.099Z,10.53
2018-05-10T02:03:57.010Z,7.23
2018-05-10T02:06:25.167Z,14.33
2018-05-10T02:08:54.072Z,6.90
2018-05-10T02:11:22.247Z,6.33
2018-05-10T02:13:50.402Z,7.00
2018-05-10T02:16:19.310Z,6.40
2018-05-10T02:18:47.482Z,10.70
2018-05-10T02:21:15.701Z,10.63
2018-05-10T02:23:43.879Z,7.70
2018-05-10T02:26:12.067Z,8.40
2018-05-10T02:28:40.190Z,7.50
2018-05-10T02:31:08.319Z,9.20
2018-05-10T02:33:37.217Z,5.50
2018-05-10T02:36:06.139Z,19.63
2018-05-10T02:38:34.269Z,10.33
2018-05-10T02:41:02.430Z,12.60
2018-05-10T02:43:30.575Z,12.13
2018-05-10T02:45:58.727Z,7.50
2018-05-10T02:48:26.861Z,11.20
2018-05-10T02:50:55.798Z,8.13
2018-05-10T02:53:24.031Z,4.43
2018-05-10T02:55:52.219Z,4.90
2018-05-10T02:58:20.379Z,10.53
2018-05-10T03:00:48.535Z,10.13
2018-05-10T03:03:16.682Z,13.63
2018-05-10T03:05:44.822Z,6.97
2018-05-10T03:08:12.986Z,5.37
2018-05-10T03:10:41.114Z,7.37
2018-05-10T03:13:09.254Z,8.67
2018-05-10T03:15:37.396Z,10.50
2018-05-10T03:18:05.570Z,35.30
2018-05-10T03:20:33.709Z,28.23
2018-05-10T03:23:01.864Z,11.03
2018-05-10T03:25:29.993Z,7.30
2018-05-10T03:27:58.787Z,11.50
2018-05-10T03:30:26.924Z,7.70
2018-05-10T03:32:55.061Z,15.20
2018-05-10T03:35:23.185Z,6.13
2018-05-10T03:37:52.090Z,7.50
2018-05-10T03:40:20.213Z,10.47
2018-05-10T03:42:48.356Z,6.60
2018-05-10T03:45:16.503Z,8.63
2018-05-10T03:47:44.654Z,8.63
2018-05-10T03:50:13.545Z,8.40
2018-05-10T03:52:42.446Z,8.17
2018-05-10T03:55:11.354Z,7.77
2018-05-10T03:57:39.502Z,6.93
2018-05-10T04:00:09.166Z,11.20
2018-05-10T04:05:59.076Z,10.93
2018-05-10T04:08:49.035Z,7.07
2018-05-10T04:11:27.748Z,8.00
2018-05-10T04:13:55.887Z,9.63
2018-05-10T04:16:24.843Z,8.90
2018-05-10T04:18:53.010Z,8.10
2018-05-10T04:21:21.165Z,15.13
2018-05-10T04:23:49.304Z,7.80
2018-05-10T04:26:17.447Z,9.30
2018-05-10T04:28:45.598Z,8.07
2018-05-10T04:31:13.747Z,10.43
2018-05-10T04:33:41.889Z,11.50
2018-05-10T04:36:10.816Z,8.80
2018-05-10T04:38:38.956Z,6.83
2018-05-10T04:41:07.883Z,9.00
2018-05-10T04:43:36.186Z,12.07
2018-05-10T04:46:04.340Z,6.63
2018-05-10T04:48:32.514Z,6.73
2018-05-10T04:51:00.670Z,9.30
2018-05-10T04:53:28.844Z,7.20
2018-05-10T04:55:56.994Z,8.13
2018-05-10T04:58:25.130Z,7.37
2018-05-10T05:00:53.264Z,8.63
2018-05-10T05:03:21.427Z,8.77
2018-05-10T05:05:49.550Z,14.60
2018-05-10T05:08:17.712Z,11.00
2018-05-10T05:10:45.854Z,13.30
2018-05-10T05:13:13.993Z,9.57
2018-05-10T05:15:42.104Z,8.93
2018-05-10T05:18:10.269Z,11.50
2018-05-10T05:20:38.407Z,8.30
2018-05-10T05:23:07.333Z,7.37
2018-05-10T05:25:35.481Z,10.90
2018-05-10T05:28:03.653Z,10.83
2018-05-10T05:30:31.786Z,15.83
2018-05-10T05:32:59.963Z,9.70
2018-05-10T05:35:28.106Z,6.23
2018-05-10T05:37:56.268Z,11.80
2018-05-10T05:40:26.185Z,7.83
2018-05-10T05:42:54.341Z,10.93
2018-05-10T05:45:22.482Z,10.53
2018-05-10T05:47:51.382Z,7.93
2018-05-10T05:50:19.514Z,7.77
2018-05-10T05:52:48.419Z,7.70
2018-05-10T05:55:16.536Z,8.77
2018-05-10T05:57:44.664Z,9.70
2018-05-10T06:00:12.798Z,11.63
2018-05-10T06:02:40.941Z,9.00
2018-05-10T06:05:09.064Z,13.80
2018-05-10T06:07:37.201Z,10.73
2018-05-10T06:10:05.317Z,6.57
2018-05-10T06:12:33.534Z,11.20
2018-05-10T06:15:01.583Z,11.20
2018-05-10T06:17:30.525Z,7.00
2018-05-10T06:19:58.649Z,7.40
2018-05-10T06:22:27.569Z,9.23
2018-05-10T06:24:56.541Z,8.00
2018-05-10T06:27:24.640Z,10.60
2018-05-10T06:29:52.782Z,12.90
2018-05-10T06:32:20.982Z,12.83
2018-05-10T06:34:49.125Z,8.97
2018-05-10T06:37:18.018Z,7.70
2018-05-10T06:39:46.159Z,11.30
2018-05-10T06:42:14.289Z,10.33
2018-05-10T06:44:42.424Z,13.37
2018-05-10T06:47:11.321Z,10.70
2018-05-10T06:49:40.234Z,10.17
2018-05-10T06:52:08.395Z,13.80
2018-05-10T06:54:36.551Z,10.53
2018-05-10T06:57:05.451Z,8.43
2018-05-10T06:59:33.628Z,14.97
2018-05-10T07:02:01.804Z,10.00
2018-05-10T07:04:29.963Z,12.33
2018-05-10T07:06:58.859Z,9.87
2018-05-10T07:09:27.078Z,11.63
2018-05-10T07:11:55.176Z,13.70
2018-05-10T07:14:23.646Z,11.33
2018-05-10T07:16:51.781Z,10.47
2018-05-10T07:19:19.940Z,9.23
2018-05-10T07:21:48.113Z,12.17
2018-05-10T07:24:16.299Z,16.40
2018-05-10T07:26:44.445Z,10.37
2018-05-10T07:29:12.614Z,12.47
2018-05-10T07:31:41.526Z,11.20
2018-05-10T07:34:09.687Z,9.90
2018-05-10T07:36:37.817Z,11.43
2018-05-10T07:39:05.964Z,13.97
2018-05-10T07:41:34.245Z,12.97
2018-05-10T07:44:02.421Z,15.43
2018-05-10T07:46:30.589Z,12.00
2018-05-10T07:48:58.731Z,10.77
2018-05-10T07:51:27.739Z,10.83
2018-05-10T07:53:55.863Z,10.70
2018-05-10T07:56:24.030Z,12.13
2018-05-10T07:58:52.162Z,10.33
2018-05-10T08:01:20.413Z,10.93
2018-05-10T08:03:48.511Z,9.43
2018-05-10T08:06:16.663Z,9.70
2018-05-10T08:08:44.808Z,13.10
2018-05-10T08:11:13.719Z,13.60
2018-05-10T08:13:41.864Z,9.17
2018-05-10T08:16:10.806Z,10.70
2018-05-10T08:18:38.929Z,13.90
2018-05-10T08:21:07.073Z,13.10
2018-05-10T08:23:49.132Z,13.97
2018-05-10T08:26:17.369Z,9.27
2018-05-10T08:28:45.495Z,8.20
2018-05-10T08:31:13.695Z,10.03
2018-05-10T08:33:41.829Z,12.60
2018-05-10T08:36:09.974Z,12.73
2018-05-10T08:38:38.903Z,13.93
2018-05-10T08:41:07.043Z,19.37
2018-05-10T08:43:36.032Z,16.97
2018-05-10T08:46:04.945Z,11.80
2018-05-10T08:48:33.077Z,15.30
2018-05-10T08:51:02.025Z,11.57
2018-05-10T08:53:30.168Z,9.80
2018-05-10T08:55:58.294Z,13.57
2018-05-10T08:58:26.428Z,12.63
2018-05-10T09:00:54.581Z,11.90
2018-05-10T09:03:22.747Z,11.03
2018-05-10T09:05:51.670Z,15.93
2018-05-10T09:08:19.823Z,11.67
2018-05-10T09:10:47.990Z,11.93
2018-05-10T09:13:16.233Z,10.87
2018-05-10T09:15:44.413Z,11.73
2018-05-10T09:18:12.576Z,12.20
2018-05-10T09:20:40.713Z,9.50
2018-05-10T09:23:08.835Z,12.30
2018-05-10T09:25:37.759Z,15.47
2018-05-10T09:28:05.905Z,11.27
2018-05-10T09:30:34.066Z,11.90
2018-05-10T09:33:02.972Z,11.80
2018-05-10T09:35:31.897Z,25.10
2018-05-10T09:38:00.043Z,9.07
2018-05-10T09:40:29.000Z,10.47
2018-05-10T09:42:57.138Z,11.20
2018-05-10T09:45:25.272Z,11.80
2018-05-10T09:47:54.232Z,12.03
2018-05-10T09:50:22.397Z,11.40
2018-05-10T09:52:50.690Z,14.07
2018-05-10T09:55:19.017Z,12.93
2018-05-10T09:57:47.146Z,12.07
2018-05-10T10:00:21.532Z,15.80
2018-05-10T10:02:49.658Z,15.20
2018-05-10T10:05:17.858Z,14.93
2018-05-10T10:07:46.840Z,12.23
2018-05-10T10:10:14.993Z,20.17
2018-05-10T10:12:43.145Z,12.07
2018-05-10T10:15:11.281Z,10.83
2018-05-10T10:17:39.522Z,16.83
2018-05-10T10:20:07.596Z,16.87
2018-05-10T10:22:35.734Z,15.23
2018-05-10T10:25:04.629Z,15.60
2018-05-10T10:27:33.554Z,16.27
2018-05-10T10:30:01.708Z,15.93
2018-05-10T10:32:30.553Z,12.17
2018-05-10T10:34:58.679Z,16.80
2018-05-10T10:37:26.799Z,15.80
2018-05-10T10:39:54.957Z,12.80
2018-05-10T10:42:23.079Z,19.73
2018-05-10T10:44:52.111Z,12.70
2018-05-10T10:47:20.311Z,15.30
2018-05-10T10:49:48.500Z,12.67
2018-05-10T10:52:16.655Z,9.20
2018-05-10T10:54:44.881Z,34.03
2018-05-10T10:57:13.078Z,12.77
2018-05-10T10:59:41.195Z,12.17
2018-05-10T11:02:09.363Z,10.10
2018-05-10T11:04:37.516Z,13.83
2018-05-10T11:07:05.680Z,12.97
2018-05-10T11:09:33.865Z,17.37
2018-05-10T11:12:02.149Z,7.37
2018-05-10T11:14:30.285Z,12.57
2018-05-10T11:16:58.502Z,17.03
2018-05-10T11:19:26.636Z,12.40
2018-05-10T11:21:54.825Z,11.60
2018-05-10T11:24:23.722Z,25.47
2018-05-10T11:26:51.878Z,10.90
2018-05-10T11:29:20.052Z,9.90
2018-05-10T11:31:48.247Z,11.80
2018-05-10T11:34:16.377Z,10.13
2018-05-10T11:36:44.562Z,17.30
2018-05-10T11:39:12.794Z,13.20
2018-05-10T11:41:40.869Z,16.93
2018-05-10T11:44:09.781Z,13.37
2018-05-10T11:46:37.983Z,13.20
2018-05-10T11:49:06.217Z,11.27
2018-05-10T11:51:34.414Z,15.77
2018-05-10T11:54:02.562Z,10.30
2018-05-10T11:56:30.879Z,12.50
2018-05-10T11:58:59.018Z,12.90
2018-05-10T12:01:27.157Z,12.33
2018-05-10T12:03:56.108Z,13.30
2018-05-10T12:06:24.295Z,12.73
2018-05-10T12:08:52.601Z,11.33
2018-05-10T12:11:21.489Z,10.40
2018-05-10T12:13:49.613Z,19.80
2018-05-10T12:16:17.742Z,13.13
2018-05-10T12:18:46.668Z,13.47
2018-05-10T12:21:14.810Z,17.73
2018-05-10T12:23:42.982Z,14.93
2018-05-10T12:26:11.139Z,27.47
2018-05-10T12:28:40.087Z,27.90
2018-05-10T12:31:08.225Z,16.37
2018-05-10T12:33:36.416Z,13.23
2018-05-10T12:36:04.554Z,15.20
2018-05-10T12:38:32.689Z,16.77
2018-05-10T12:41:00.951Z,14.03
2018-05-10T12:43:29.222Z,15.30
2018-05-10T12:45:57.386Z,19.70
2018-05-10T12:48:25.564Z,12.13
2018-05-10T12:50:53.710Z,12.97
2018-05-10T12:53:22.661Z,23.77
2018-05-10T12:55:51.774Z,20.20
2018-05-10T12:58:19.908Z,22.43
2018-05-10T13:00:48.138Z,15.13
2018-05-10T13:03:16.236Z,19.97
2018-05-10T13:05:44.386Z,32.83
2018-05-10T13:08:12.553Z,34.10
2018-05-10T13:10:41.494Z,48.50
2018-05-10T13:13:09.621Z,46.07
2018-05-10T13:15:37.787Z,53.03
2018-05-10T13:18:06.684Z,68.23
2018-05-10T13:20:35.689Z,69.17
2018-05-10T13:23:03.839Z,65.17
2018-05-10T13:25:32.593Z,67.00
2018-05-10T13:28:00.781Z,68.90
2018-05-10T13:30:29.067Z,79.27
2018-05-10T13:32:57.557Z,84.57
2018-05-10T13:35:26.494Z,92.07
2018-05-10T13:37:54.697Z,91.07
2018-05-10T13:40:23.639Z,79.53
2018-05-10T13:42:51.800Z,87.27
2018-05-10T13:45:20.022Z,76.27
2018-05-10T13:47:48.195Z,57.63
2018-05-10T13:50:16.340Z,52.17
2018-05-10T13:52:44.525Z,52.23
2018-05-10T13:55:12.670Z,48.00
2018-05-10T13:57:40.819Z,47.67
2018-05-10T14:00:09.732Z,42.30
2018-05-10T14:02:37.894Z,46.77
2018-05-10T14:05:06.069Z,45.30
2018-05-10T14:07:34.232Z,41.43
2018-05-10T14:10:03.175Z,37.47
2018-05-10T14:12:31.334Z,38.13
2018-05-10T14:14:59.566Z,40.63
2018-05-10T14:17:28.556Z,40.00
2018-05-10T14:19:57.508Z,34.33
2018-05-10T14:22:25.674Z,38.10
2018-05-10T14:24:53.810Z,44.07
2018-05-10T14:27:22.044Z,38.97
2018-05-10T14:29:50.216Z,45.60
2018-05-10T14:32:18.414Z,49.87
2018-05-10T14:34:47.334Z,47.30
2018-05-10T14:37:15.484Z,45.57
2018-05-10T14:39:44.423Z,42.17
2018-05-10T14:42:13.360Z,51.83
2018-05-10T14:44:42.312Z,52.30
2018-05-10T14:47:10.450Z,48.10
2018-05-10T14:49:38.602Z,39.80
2018-05-10T14:52:06.747Z,38.33
2018-05-10T14:54:34.959Z,32.60
2018-05-10T14:57:03.986Z,30.77
2018-05-10T14:59:32.146Z,31.43
2018-05-10T15:02:00.280Z,29.97
2018-05-10T15:04:29.217Z,28.53
2018-05-10T15:06:57.608Z,31.50
2018-05-10T15:09:25.787Z,29.03
2018-05-10T15:11:53.973Z,26.33
2018-05-10T15:14:22.140Z,26.87
2018-05-10T15:16:50.286Z,29.30
2018-05-10T15:19:18.450Z,31.10
2018-05-10T15:21:47.620Z,34.07
2018-05-10T15:24:15.739Z,31.07
2018-05-10T15:26:43.905Z,31.30
2018-05-10T15:29:12.134Z,32.17
2018-05-10T15:31:41.075Z,30.03
2018-05-10T15:34:09.274Z,30.17
2018-05-10T15:36:37.426Z,28.23
2018-05-10T15:39:05.666Z,38.73
2018-05-10T15:41:34.545Z,37.27
2018-05-10T15:44:03.464Z,40.80
2018-05-10T15:46:31.611Z,34.77
2018-05-10T15:48:59.782Z,28.53
2018-05-10T15:51:27.930Z,32.53
2018-05-10T15:53:56.894Z,32.63
2018-05-10T15:56:25.047Z,27.30
2018-05-10T15:58:53.235Z,36.90
2018-05-10T16:01:21.411Z,31.17
2018-05-10T16:03:49.587Z,32.73
2018-05-10T16:06:17.756Z,30.83
2018-05-10T16:08:45.925Z,21.70
2018-05-10T16:11:14.093Z,17.27
2018-05-10T16:13:42.270Z,20.03
2018-05-10T16:16:10.463Z,20.43
2018-05-10T16:18:39.416Z,18.20
2018-05-10T16:21:08.341Z,13.60
2018-05-10T16:23:36.511Z,12.23
2018-05-10T16:26:04.745Z,10.63
2018-05-10T16:28:32.923Z,11.40
2018-05-10T16:31:01.093Z,10.00
2018-05-10T16:33:29.363Z,12.03
2018-05-10T16:35:57.453Z,5.50
2018-05-10T16:38:25.763Z,10.73
2018-05-10T16:40:53.914Z,6.47
2018-05-10T16:43:22.174Z,8.53
2018-05-10T16:45:50.314Z,6.87
2018-05-10T16:48:18.498Z,9.47
2018-05-10T16:50:46.650Z,5.73
2018-05-10T16:53:15.671Z,9.27
2018-05-10T16:55:43.813Z,6.10
2018-05-10T16:58:12.733Z,8.63
2018-05-10T17:00:40.974Z,7.53
2018-05-10T17:03:09.943Z,5.13
2018-05-10T17:05:38.295Z,5.40
2018-05-10T17:08:06.547Z,7.10
2018-05-10T17:10:34.698Z,7.97
2018-05-10T17:13:03.636Z,6.70
2018-05-10T17:15:31.836Z,6.40
2018-05-10T17:17:59.993Z,6.87
2018-05-10T17:20:28.194Z,8.50
2018-05-10T17:22:57.096Z,4.93
2018-05-10T17:25:26.039Z,9.73
2018-05-10T17:27:54.197Z,11.53
2018-05-10T17:30:22.352Z,7.20
2018-05-10T17:32:50.561Z,5.83
2018-05-10T17:35:18.741Z,10.87
2018-05-10T17:37:46.886Z,7.97
2018-05-10T17:40:15.029Z,5.97
2018-05-10T17:42:43.951Z,10.70
2018-05-10T17:45:12.094Z,6.67
2018-05-10T17:47:41.006Z,6.80
2018-05-10T17:50:09.220Z,6.30
2018-05-10T17:52:37.462Z,7.13
2018-05-10T17:55:05.722Z,13.23
2018-05-10T17:57:33.914Z,7.77
2018-05-10T18:00:02.103Z,11.70
2018-05-10T18:02:30.973Z,8.90
2018-05-10T18:04:59.137Z,9.17
2018-05-10T18:07:27.284Z,6.50
2018-05-10T18:09:55.447Z,6.47
2018-05-10T18:12:24.363Z,11.77
2018-05-10T18:14:52.592Z,12.93
2018-05-10T18:17:20.755Z,9.20
2018-05-10T18:19:48.935Z,10.57
2018-05-10T18:22:17.094Z,16.13
2018-05-10T18:24:45.221Z,6.73
2018-05-10T18:27:13.357Z,11.10
2018-05-10T18:29:41.482Z,9.43
2018-05-10T18:32:09.752Z,10.40
2018-05-10T18:34:38.031Z,8.80
2018-05-10T18:37:06.288Z,17.63
2018-05-10T18:39:34.605Z,15.53
2018-05-10T18:42:02.798Z,11.70
2018-05-10T18:44:30.968Z,20.30
2018-05-10T18:46:59.160Z,22.40
2018-05-10T18:49:27.302Z,6.70
2018-05-10T18:51:55.499Z,15.37
2018-05-10T18:54:23.656Z,12.27
2018-05-10T18:56:51.878Z,12.17
2018-05-10T18:59:20.039Z,9.80
2018-05-10T19:01:49.059Z,9.80
2018-05-10T19:04:17.256Z,13.73
2018-05-10T19:06:45.410Z,10.13
2018-05-10T19:09:13.562Z,11.43
2018-05-10T19:11:41.737Z,8.37
2018-05-10T19:14:09.978Z,12.43
2018-05-10T19:16:38.176Z,11.00
2018-05-10T19:19:07.237Z,12.57
2018-05-10T19:21:35.463Z,11.77
2018-05-10T19:24:03.637Z,11.70
2018-05-10T19:26:31.884Z,8.67
2018-05-10T19:28:59.962Z,10.97
2018-05-10T19:31:28.884Z,6.63
2018-05-10T19:33:57.015Z,22.47
2018-05-10T19:36:26.004Z,13.67
2018-05-10T19:38:54.138Z,10.53
2018-05-10T19:41:22.325Z,14.40
2018-05-10T19:43:50.469Z,14.63
2018-05-10T19:46:18.605Z,8.80
2018-05-10T19:48:47.608Z,14.77
2018-05-10T19:51:16.590Z,13.73
2018-05-10T19:53:44.775Z,11.90
2018-05-10T19:56:13.018Z,9.63
2018-05-10T19:58:41.197Z,10.00
2018-05-10T20:01:09.466Z,13.40
2018-05-10T20:03:37.642Z,13.40
2018-05-10T20:06:06.568Z,11.97
2018-05-10T20:08:34.733Z,14.03
2018-05-10T20:11:02.958Z,11.67
2018-05-10T20:13:31.106Z,19.50
2018-05-10T20:15:59.246Z,9.10
2018-05-10T20:18:28.164Z,9.13
2018-05-10T20:20:56.314Z,19.80
2018-05-10T20:23:24.463Z,9.40
2018-05-10T20:25:52.610Z,12.50
2018-05-10T20:28:20.801Z,9.10
2018-05-10T20:30:48.937Z,16.47
2018-05-10T20:33:17.082Z,13.40
2018-05-10T20:35:45.281Z,19.60
2018-05-10T20:38:13.450Z,12.50
2018-05-10T20:40:42.466Z,7.47
2018-05-10T20:43:10.652Z,17.53
2018-05-10T20:45:38.784Z,13.37
2018-05-10T20:48:06.918Z,13.80
2018-05-10T20:50:35.864Z,10.20
2018-05-10T20:53:04.002Z,7.10
2018-05-10T20:55:32.153Z,25.43
2018-05-10T20:58:03.026Z,16.07
2018-05-10T21:00:31.204Z,20.53
2018-05-10T21:02:59.357Z,14.77
2018-05-10T21:05:27.514Z,18.57
2018-05-10T21:07:55.653Z,14.57
2018-05-10T21:10:23.879Z,13.40
2018-05-10T21:12:52.001Z,13.67
2018-05-10T21:15:20.155Z,11.00
2018-05-10T21:17:48.430Z,16.17
2018-05-10T21:20:16.638Z,15.13
2018-05-10T21:22:44.772Z,15.07
2018-05-10T21:25:12.928Z,14.40
2018-05-10T21:27:41.068Z,7.63
2018-05-10T21:30:10.047Z,12.63
2018-05-10T21:32:38.343Z,16.10
2018-05-10T21:35:07.258Z,10.03
2018-05-10T21:37:35.406Z,10.47
2018-05-10T21:40:04.336Z,22.80
2018-05-10T21:42:32.461Z,12.37
2018-05-10T21:45:00.674Z,11.73
2018-05-10T21:47:28.825Z,11.27
2018-05-10T21:50:04.790Z,11.10
2018-05-10T21:52:33.030Z,10.40
2018-05-10T21:55:01.953Z,20.80
2018-05-10T21:57:30.100Z,20.77
2018-05-10T21:59:58.997Z,15.27
2018-05-10T22:02:27.925Z,13.90
2018-05-10T22:04:56.075Z,25.43
2018-05-10T22:07:24.318Z,18.07
2018-05-10T22:09:53.232Z,13.63
2018-05-10T22:12:21.382Z,10.07
2018-05-10T22:14:50.289Z,19.50
2018-05-10T22:17:19.216Z,14.77
2018-05-10T22:19:47.362Z,11.83
2018-05-10T22:22:15.531Z,11.80
2018-05-10T22:24:43.680Z,8.00
2018-05-10T22:27:11.839Z,13.30
2018-05-10T22:29:40.768Z,12.27
2018-05-10T22:32:08.953Z,14.90
2018-05-10T22:34:37.073Z,14.07
2018-05-10T22:37:05.256Z,20.10
2018-05-10T22:39:33.400Z,13.90
2018-05-10T22:42:01.543Z,10.63
2018-05-10T22:44:29.806Z,11.03
2018-05-10T22:46:58.628Z,12.90
2018-05-10T22:49:26.782Z,19.90
2018-05-10T22:51:54.930Z,13.00
2018-05-10T22:54:23.876Z,14.33
2018-05-10T22:56:52.017Z,14.60
2018-05-10T22:59:20.164Z,8.50
2018-05-10T23:01:49.067Z,15.67
2018-05-10T23:04:17.208Z,13.83
2018-05-10T23:06:45.350Z,18.37
2018-05-10T23:09:13.529Z,13.33
2018-05-10T23:11:41.697Z,9.67
2018-05-10T23:14:09.842Z,11.13
2018-05-10T23:16:37.980Z,14.97
2018-05-10T23:19:06.933Z,12.13
2018-05-10T23:21:35.097Z,12.90
2018-05-10T23:24:03.241Z,9.10
2018-05-10T23:26:31.387Z,14.60
2018-05-10T23:29:00.289Z,9.20
2018-05-10T23:31:29.219Z,13.40
2018-05-10T23:33:57.374Z,16.33
2018-05-10T23:36:31.556Z,9.83
2018-05-10T23:39:00.490Z,9.73
2018-05-10T23:41:28.670Z,13.30
2018-05-10T23:43:56.809Z,22.47
2018-05-10T23:46:25.703Z,11.00
2018-05-10T23:48:53.880Z,11.37
2018-05-10T23:51:22.022Z,8.27
2018-05-10T23:53:50.948Z,13.67
2018-05-10T23:56:19.079Z,10.83
2018-05-10T23:58:47.249Z,10.87
